Pequea, PA (17565)

12:33 PM EDT on June 02, 2015 (GMT -0400)
Mt. Nebo | | Change Station
CLOSE
Current Station
Personal Weather Station
Location: Holtwood, PA
Elevation: 843 ft
Nearby Weather Stations

Elev 843 ft 39.88 °N, 76.32 °W | Updated 16 seconds ago

Overcast
Overcast
54.9 °F
Feels Like 54.9 °F
N
0.0
Wind Variable Wind from NE
Gusts 0.0 mph

Today
High -- | Low -- °F
--% Chance of Precip.
Yesterday
High -- | Low -- °F
Precip. -- in
5:38 AM 8:28 PM
Full, 100% visible
Pressure 30.14 in
Visibility 7.0 miles
Clouds Scattered Clouds 900 ft
Scattered Clouds 1400 ft
Overcast 3800 ft
Dew Point Not available.
Humidity Not available.
Rainfall 0.00 in
Snow Depth Not available.
UV 3 out of 12
Pollen .80 out of 12
Air Quality Not available.
Flu Activity Sporadic
SPECI KLNS 021611Z 04009KT 7SM -RA SCT009 SCT014 OVC038 12/11 A3014 RMK AO2 P0001 T01220106

More Conditions Fewer Conditions

Pressure 30.14 in
Visibility 7.0 miles
Clouds Scattered Clouds 900 ft
Scattered Clouds 1400 ft
Overcast 3800 ft
Dew Point Not available.
Humidity Not available.
Rainfall 0.00 in
Snow Depth Not available.
UV 3 out of 12
Pollen .80 out of 12
Air Quality Not available.
Flu Activity Sporadic
SPECI KLNS 021611Z 04009KT 7SM -RA SCT009 SCT014 OVC038 12/11 A3014 RMK AO2 P0001 T01220106

More Conditions Fewer Conditions

10-Day Weather Forecast

Almanac

Astronomy

Jun. 02, 2015 Rise Set
Actual Time
Civil Twilight
Nautical Twilight
Astronomical Twilight
Moon
Length of Visible Light
Length of Day
Tomorrow will be .
, % of the Moon is Illuminated

Today's Extremes

State Highs State Lows

Community

WunderPhotos

Upload Photos

1,825,976 photos uploaded!

WunderBlogs® & News

Nearby

Air Quality

  Air Quality AQ Index Pollutant
Not available.

Snow Depth

Station Depth Elevation

Earthquake Activity

City Distance Mag. Time & Date
Minimum magnitude displayed is 2.5.

Coastal Water Temperatures

Place Temperature

Stations

Nearby Weather Stations

Station Location Temp. Windchill Dew Point Humidity Wind Precip. Elev Updated Type